Time;durP1;ratioP1;P1;durP2;ratioP2;P2;SDS_P1;SDS_P2;PMS_P1;PMS_P2;Temp;Humidity;BMP_temperature;BMP_pressure;BME280_temperature;BME280_humidity;BME280_pressure;Samples;Min_cycle;Max_cycle;Signal;HPM_P1;HPM_P2
2022/09/11 03:39:00;;;;;;;34.38;17.95;;;;;;;16.86;100.00;97453.91;5129243;27;20468;-82
2022/09/11 03:41:26;;;;;;;39.22;19.88;;;;;;;16.91;100.00;97454.34;5111037;28;20060;-76
2022/09/11 03:43:54;;;;;;;40.22;20.17;;;;;;;16.98;100.00;97453.66;5110749;28;20031;-78
2022/09/11 03:46:19;;;;;;;32.83;18.60;;;;;;;17.04;100.00;97453.09;5105249;28;20118;-78
2022/09/11 03:48:45;;;;;;;30.48;18.08;;;;;;;17.08;100.00;97457.25;5111050;28;20585;-79
2022/09/11 03:51:14;;;;;;;30.02;18.33;;;;;;;17.03;100.00;97445.16;5128133;27;20031;-78
2022/09/11 03:53:41;;;;;;;29.63;17.17;;;;;;;17.12;100.00;97452.44;5127818;27;20030;-77
2022/09/11 03:56:06;;;;;;;31.92;17.65;;;;;;;17.09;100.00;97444.59;5110671;28;20128;-77
2022/09/11 03:58:32;;;;;;;28.63;17.02;;;;;;;17.17;100.00;97452.84;5110665;28;20114;-78
2022/09/11 04:01:01;;;;;;;23.30;15.23;;;;;;;17.24;100.00;97448.63;5110576;28;20027;-78
2022/09/11 04:03:26;;;;;;;26.08;14.93;;;;;;;17.23;100.00;97439.66;5128921;27;20050;-78
2022/09/11 04:06:00;;;;;;;23.48;15.13;;;;;;;17.28;100.00;97441.94;5110349;28;20423;-78
2022/09/11 04:08:26;;;;;;;26.35;14.10;;;;;;;17.35;100.00;97433.13;5103729;28;20474;-78
2022/09/11 04:10:57;;;;;;;28.13;14.98;;;;;;;17.38;100.00;97420.34;5110854;28;20023;-78
2022/09/11 04:16:18;;;;;;;25.15;15.10;;;;;;;17.56;100.00;97426.81;5128295;28;20034;-78
2022/09/11 04:18:48;;;;;;;31.23;15.95;;;;;;;17.74;100.00;97430.50;5110261;28;20063;-79
2022/09/11 04:21:16;;;;;;;25.73;16.45;;;;;;;17.85;100.00;97425.81;5111210;28;20050;-79
2022/09/11 04:23:41;;;;;;;28.63;17.85;;;;;;;17.85;100.00;97424.94;5110218;28;20464;-79
2022/09/11 04:26:24;;;;;;;34.08;16.48;;;;;;;17.87;100.00;97422.97;5109708;28;20039;-78
2022/09/11 04:29:01;;;;;;;29.10;17.00;;;;;;;18.02;100.00;97409.84;5110020;28;20031;-79
2022/09/11 04:31:27;;;;;;;30.20;16.17;;;;;;;18.14;100.00;97412.25;5127166;28;20034;-80
2022/09/11 04:33:54;;;;;;;27.88;15.93;;;;;;;18.26;100.00;97415.63;5127083;28;20031;-77
2022/09/11 04:36:24;;;;;;;24.58;15.40;;;;;;;18.29;100.00;97404.53;5109663;28;20065;-79
2022/09/11 04:38:54;;;;;;;23.77;14.70;;;;;;;18.24;100.00;97404.13;5110064;28;20134;-77
2022/09/11 04:41:23;;;;;;;24.83;15.50;;;;;;;18.29;100.00;97407.22;5127165;27;20023;-87
2022/09/11 04:44:01;;;;;;;20.70;13.65;;;;;;;18.21;100.00;97371.91;5111888;28;20622;-77
2022/09/11 04:46:28;;;;;;;23.13;13.63;;;;;;;18.36;100.00;97375.84;5109610;28;20023;-77
2022/09/11 04:48:55;;;;;;;19.50;12.68;;;;;;;18.64;100.00;97388.44;5103830;28;20137;-77
2022/09/11 04:51:21;;;;;;;20.13;12.77;;;;;;;18.74;100.00;97394.69;5114036;28;20055;-76
2022/09/11 04:53:48;;;;;;;19.77;12.75;;;;;;;18.90;100.00;97392.19;5095829;28;20036;-77
2022/09/11 04:56:14;;;;;;;26.20;12.68;;;;;;;19.05;100.00;97384.41;5095504;28;20487;-76
2022/09/11 04:58:41;;;;;;;25.48;13.48;;;;;;;19.17;100.00;97390.47;5112837;28;20026;-77
2022/09/11 05:01:12;;;;;;;24.08;14.50;;;;;;;19.19;100.00;97377.63;5095656;28;20035;-78
2022/09/11 05:03:38;;;;;;;22.02;12.40;;;;;;;19.15;100.00;97378.94;5112973;28;20023;-77
2022/09/11 05:06:09;;;;;;;18.90;12.38;;;;;;;19.15;100.00;97378.94;5095760;28;20115;-77
2022/09/11 05:08:35;;;;;;;24.90;12.45;;;;;;;18.89;100.00;97368.78;5112246;28;20035;-77
2022/09/11 05:11:04;;;;;;;27.00;15.50;;;;;;;19.03;100.00;97374.72;5095808;28;20038;-77
2022/09/11 05:13:30;;;;;;;33.20;17.52;;;;;;;19.10;100.00;97371.28;5095754;28;20038;-77
2022/09/11 05:16:08;;;;;;;41.92;18.67;;;;;;;19.31;100.00;97377.28;5112528;28;20023;-77
2022/09/11 05:18:34;;;;;;;21.38;13.77;;;;;;;19.33;100.00;97367.09;5112394;27;20031;-77
2022/09/11 05:21:05;;;;;;;24.00;13.55;;;;;;;19.34;100.00;97367.97;5095254;28;20061;-77
2022/09/11 05:23:31;;;;;;;24.02;13.00;;;;;;;19.47;100.00;97363.06;5094939;28;20405;-77
2022/09/11 05:26:02;;;;;;;20.60;12.82;;;;;;;19.59;100.00;97369.09;5095343;28;20545;-78
2022/09/11 05:28:29;;;;;;;24.77;12.70;;;;;;;19.55;100.00;97356.84;5094595;28;20124;-78
2022/09/11 05:30:55;;;;;;;22.23;12.90;;;;;;;19.59;100.00;97356.38;5095306;28;20024;-76
2022/09/11 05:33:25;;;;;;;21.00;13.48;;;;;;;19.72;100.00;97358.72;5094979;28;20134;-77
2022/09/11 05:35:52;;;;;;;25.13;15.07;;;;;;;19.78;100.00;97349.94;5112006;28;20413;-77
2022/09/11 05:38:18;;;;;;;28.73;19.33;;;;;;;19.82;100.00;97346.72;5094966;28;20047;-78
2022/09/11 05:40:48;;;;;;;25.58;13.73;;;;;;;19.89;100.00;97336.97;5111554;28;20038;-80
2022/09/11 05:43:25;;;;;;;19.95;13.65;;;;;;;20.14;100.00;97334.41;5113389;28;20031;-77
2022/09/11 05:45:57;;;;;;;22.80;13.32;;;;;;;20.57;100.00;97337.09;5112111;28;20032;-77
2022/09/11 05:48:24;;;;;;;26.23;13.48;;;;;;;20.79;100.00;97330.22;5111732;28;20035;-76
2022/09/11 05:51:00;;;;;;;32.72;19.75;;;;;;;20.77;100.00;97337.69;5094797;28;20054;-78
2022/09/11 05:53:27;;;;;;;24.90;15.77;;;;;;;20.98;100.00;97328.06;5113725;28;20027;-77
2022/09/11 05:55:53;;;;;;;23.48;15.05;;;;;;;21.49;100.00;97337.09;5094834;28;20420;-78
2022/09/11 05:58:20;;;;;;;20.73;13.27;;;;;;;22.39;100.00;97336.06;5111643;28;20080;-76
2022/09/11 06:00:46;;;;;;;23.70;12.90;;;;;;;22.70;100.00;97330.72;5093755;28;20050;-77
2022/09/11 06:03:16;;;;;;;26.42;12.98;;;;;;;22.65;100.00;97317.63;5094552;28;20027;-76
2022/09/11 06:05:42;;;;;;;20.38;12.55;;;;;;;22.47;100.00;97315.09;5094348;28;20051;-77
2022/09/11 06:08:08;;;;;;;17.27;12.25;;;;;;;22.56;100.00;97310.44;5094564;28;20068;-79
2022/09/11 06:10:35;;;;;;;23.58;12.32;;;;;;;23.21;100.00;97316.50;5094081;28;20043;-77
2022/09/11 06:13:01;;;;;;;18.63;11.80;;;;;;;25.19;93.68;97324.28;5094545;28;20490;-78
2022/09/11 06:15:27;;;;;;;45.38;29.58;;;;;;;26.71;82.36;97322.81;5094250;28;20111;-76
2022/09/11 06:17:53;;;;;;;16.95;11.07;;;;;;;27.30;77.35;97316.81;5094272;28;20440;-76
2022/09/11 06:20:18;;;;;;;18.00;11.15;;;;;;;26.55;78.23;97305.84;5111287;28;20076;-77
2022/09/11 06:22:44;;;;;;;14.98;10.45;;;;;;;25.48;84.10;97306.91;5095810;28;20114;-76
2022/09/11 06:25:10;;;;;;;27.27;13.15;;;;;;;24.37;90.17;97290.69;5112353;28;20062;-78
2022/09/11 06:27:35;;;;;;;18.70;12.32;;;;;;;23.69;96.43;97285.31;5111306;28;20103;-78
2022/09/11 06:30:01;;;;;;;21.23;13.85;;;;;;;23.83;97.10;97298.19;5111290;28;20032;-77
2022/09/11 06:32:26;;;;;;;26.63;14.48;;;;;;;23.34;100.00;97277.72;5094581;28;20055;-77
2022/09/11 06:34:53;;;;;;;26.40;12.68;;;;;;;24.82;94.56;97286.94;5110682;28;20160;-78
2022/09/11 06:37:22;;;;;;;22.35;12.15;;;;;;;25.74;86.82;97277.06;5111526;28;20075;-78
2022/09/11 06:39:49;;;;;;;17.10;12.27;;;;;;;26.69;81.31;97277.41;5093515;28;20059;-77
2022/09/11 06:42:15;;;;;;;16.42;11.00;;;;;;;26.72;77.09;97266.88;5110889;28;20522;-76
2022/09/11 06:44:40;;;;;;;18.48;11.25;;;;;;;25.82;79.66;97266.81;5110438;28;20183;-77
2022/09/11 06:47:06;;;;;;;20.67;11.32;;;;;;;25.31;83.36;97273.44;5093158;28;20088;-76
2022/09/11 06:49:31;;;;;;;263.98;28.13;;;;;;;26.31;79.12;97274.19;5093771;28;20028;-78
2022/09/11 06:51:58;;;;;;;18.35;12.40;;;;;;;26.06;77.93;97264.69;5110353;28;20027;-77
2022/09/11 06:54:23;;;;;;;19.88;11.77;;;;;;;25.65;79.80;97270.88;5093584;28;20023;-76
2022/09/11 06:56:53;;;;;;;18.67;11.23;;;;;;;25.34;81.62;97275.78;5093292;28;20473;-77
2022/09/11 06:59:22;;;;;;;19.63;10.73;;;;;;;24.92;83.89;97276.53;5093657;28;20028;-77
2022/09/11 07:01:49;;;;;;;26.45;12.68;;;;;;;24.31;87.52;97276.91;5093815;28;20070;-78
2022/09/11 07:04:15;;;;;;;20.58;11.48;;;;;;;24.02;89.61;97274.97;5093320;28;20486;-77
2022/09/11 07:06:41;;;;;;;35.63;20.38;;;;;;;23.78;91.88;97277.91;5110002;28;20448;-78
2022/09/11 07:09:06;;;;;;;28.48;12.30;;;;;;;23.72;93.10;97268.56;5109873;28;20027;-77
2022/09/11 07:11:33;;;;;;;18.25;12.40;;;;;;;24.35;91.59;97281.81;5092896;28;20028;-76
2022/09/11 07:14:08;;;;;;;21.52;12.70;;;;;;;24.79;88.97;97270.88;5093413;28;20027;-77
2022/09/11 07:16:34;;;;;;;23.27;12.10;;;;;;;25.80;82.47;97274.41;5093540;28;20036;-77
2022/09/11 07:18:59;;;;;;;26.27;15.38;;;;;;;27.44;74.33;97275.47;5110139;28;20032;-78
2022/09/11 07:21:26;;;;;;;14.95;9.43;;;;;;;29.76;65.00;97272.13;5109824;28;20028;-78
2022/09/11 07:23:56;;;;;;;12.68;9.13;;;;;;;30.15;61.39;97260.00;5093143;28;20030;-78
2022/09/11 07:26:26;;;;;;;24.23;11.82;;;;;;;29.37;62.05;97251.16;5109680;28;20072;-78
2022/09/11 07:28:53;;;;;;;29.70;17.35;;;;;;;28.59;63.62;97255.84;5092941;28;20023;-77
2022/09/11 07:31:21;;;;;;;15.40;10.52;;;;;;;27.88;65.45;97254.81;5092741;28;20493;-78
2022/09/11 07:33:48;;;;;;;15.73;9.23;;;;;;;27.52;66.88;97254.34;5110354;28;20040;-77
2022/09/11 07:36:16;;;;;;;15.60;9.98;;;;;;;28.15;64.40;97248.28;5126817;27;20027;-78
2022/09/11 07:38:43;;;;;;;15.77;9.90;;;;;;;29.77;59.62;97240.72;5109732;28;20135;-76
2022/09/11 07:41:09;;;;;;;17.65;8.93;;;;;;;31.64;53.47;97237.28;5109951;28;20452;-76
2022/09/11 07:43:36;;;;;;;7.95;5.55;;;;;;;33.51;45.85;97229.81;5109791;28;20122;-78
2022/09/11 07:46:02;;;;;;;14.02;8.82;;;;;;;33.98;45.32;97219.34;5092720;28;20035;-78
2022/09/11 07:48:28;;;;;;;14.35;7.28;;;;;;;34.21;43.96;97216.44;5109461;28;20125;-76
2022/09/11 07:51:01;;;;;;;13.85;6.47;;;;;;;34.86;41.95;97216.63;5092895;28;20036;-77
2022/09/11 07:53:31;;;;;;;9.55;4.20;;;;;;;34.90;40.25;97211.41;5109728;28;20046;-77
2022/09/11 07:56:02;;;;;;;9.27;4.28;;;;;;;35.55;39.27;97205.84;5109684;28;20027;-77
2022/09/11 07:58:32;;;;;;;12.57;4.72;;;;;;;35.83;37.98;97197.25;5110851;28;20028;-76
2022/09/11 08:00:58;;;;;;;3.55;3.03;;;;;;;36.20;36.45;97194.56;5109676;28;20043;-76
2022/09/11 08:03:24;;;;;;;6.55;3.47;;;;;;;36.30;35.32;97184.31;5109284;28;20384;-76
2022/09/11 08:05:50;;;;;;;4.10;3.70;;;;;;;35.52;36.66;97192.44;5109357;28;20459;-78
2022/09/11 08:08:15;;;;;;;10.65;3.63;;;;;;;35.64;37.01;97180.09;5110887;28;20023;-78
2022/09/11 08:10:41;;;;;;;14.07;9.70;;;;;;;35.94;36.98;97190.66;5109503;28;20023;-78
2022/09/11 08:13:07;;;;;;;14.07;4.40;;;;;;;36.29;35.56;97182.66;5109472;28;20423;-78
2022/09/11 08:15:34;;;;;;;39.90;4.82;;;;;;;36.40;34.89;97175.19;5109612;28;20088;-78
2022/09/11 08:17:59;;;;;;;4.97;3.25;;;;;;;34.59;37.05;97165.63;5109383;28;20027;-75
2022/09/11 08:20:25;;;;;;;6.85;3.67;;;;;;;33.81;38.49;97165.75;5109075;28;20027;-77
2022/09/11 08:22:51;;;;;;;14.75;7.57;;;;;;;34.68;37.01;97164.94;5109652;28;20363;-77
2022/09/11 08:25:17;;;;;;;7.57;3.70;;;;;;;35.84;35.68;97173.84;5112726;28;20031;-78
2022/09/11 08:27:42;;;;;;;8.43;3.35;;;;;;;36.79;34.76;97172.97;5113559;28;20016;-77
2022/09/11 08:30:12;;;;;;;5.78;3.10;;;;;;;37.25;33.35;97160.09;5113346;28;20489;-79
2022/09/11 08:32:39;;;;;;;4.15;3.10;;;;;;;37.27;33.29;97153.09;5113784;27;20024;-78
2022/09/11 08:35:05;;;;;;;4.93;3.00;;;;;;;37.47;33.38;97147.59;5113313;27;20031;-77
2022/09/11 08:37:30;;;;;;;5.90;3.38;;;;;;;38.22;32.11;97145.16;5112998;28;20071;-78
2022/09/11 08:39:56;;;;;;;3.55;2.88;;;;;;;37.62;31.97;97124.47;5113384;28;20058;-78
2022/09/11 08:42:22;;;;;;;4.05;2.95;;;;;;;38.54;31.45;97148.53;5130164;27;20027;-78
2022/09/11 08:44:56;;;;;;;3.65;3.20;;;;;;;39.34;29.77;97152.19;5113168;27;20027;-78
2022/09/11 08:47:27;;;;;;;4.93;3.20;;;;;;;37.96;31.23;97116.41;5095701;28;20030;-78
2022/09/11 08:49:59;;;;;;;8.25;4.32;;;;;;;36.78;33.27;97119.13;5113166;28;20409;-78
2022/09/11 08:52:25;;;;;;;10.70;9.15;;;;;;;37.00;33.37;97120.91;5114076;28;20486;-78
2022/09/11 08:54:54;;;;;;;6.57;4.07;;;;;;;37.13;32.39;97120.41;5113361;28;20086;-79
2022/09/11 08:57:37;;;;;;;4.68;4.25;;;;;;;37.19;32.53;97119.31;5113298;28;20508;-78
2022/09/11 09:00:27;;;;;;;5.07;3.20;;;;;;;37.34;31.87;97122.16;5109349;28;20062;-79
2022/09/11 09:03:11;;;;;;;4.95;3.92;;;;;;;35.51;33.46;97102.53;5091164;28;20498;-79
2022/09/11 09:05:46;;;;;;;3.95;3.47;;;;;;;35.43;34.12;97105.81;5111465;28;20023;-79
2022/09/11 09:08:34;;;;;;;11.00;4.40;;;;;;;35.16;35.03;97100.22;5129993;27;20053;-79
2022/09/11 09:11:36;;;;;;;5.93;4.20;;;;;;;34.90;35.63;97109.34;5130895;27;20024;-77
2022/09/11 09:14:35;;;;;;;3.88;3.30;;;;;;;36.11;34.00;97112.56;5097424;28;20474;-79
2022/09/11 09:17:08;;;;;;;7.60;4.38;;;;;;;37.25;32.09;97099.53;5108252;28;20023;-77
2022/09/11 09:19:51;;;;;;;5.53;3.45;;;;;;;38.11;30.93;97104.38;5093180;28;20189;-79
2022/09/11 09:22:41;;;;;;;4.32;3.75;;;;;;;35.84;33.56;97068.88;5112669;28;20016;-79
2022/09/11 09:25:13;;;;;;;3.85;3.25;;;;;;;37.43;31.46;97081.41;5129399;27;20028;-79
2022/09/11 09:27:47;;;;;;;4.07;3.30;;;;;;;38.62;30.79;97089.19;5111959;28;20032;-79
2022/09/11 09:30:20;;;;;;;4.95;3.90;;;;;;;37.26;32.15;97061.25;5112419;28;20406;-79
2022/09/11 09:33:21;;;;;;;6.38;3.40;;;;;;;38.75;29.87;97088.59;5112189;27;20093;-80
2022/09/11 09:35:47;;;;;;;4.00;3.43;;;;;;;38.48;29.95;97065.75;5129160;27;20038;-79
2022/09/11 09:38:14;;;;;;;6.07;3.85;;;;;;;37.36;31.36;97064.91;5111955;28;20024;-79
2022/09/11 09:41:10;;;;;;;5.20;3.53;;;;;;;37.15;31.63;97059.56;5094832;28;20034;-79
2022/09/11 09:43:53;;;;;;;3.47;3.17;;;;;;;37.21;32.45;97061.25;5113421;28;20501;-78
2022/09/11 09:46:31;;;;;;;8.75;4.53;;;;;;;35.97;33.38;97050.03;5110571;28;20456;-79
2022/09/11 09:49:00;;;;;;;4.60;3.67;;;;;;;32.66;37.07;97044.00;5112942;28;20116;-76
2022/09/11 09:51:26;;;;;;;7.07;3.92;;;;;;;32.46;38.61;97054.63;5111950;28;20031;-77
2022/09/11 09:53:55;;;;;;;4.78;3.65;;;;;;;34.00;36.20;97073.59;5112123;28;20036;-79
2022/09/11 09:56:22;;;;;;;7.88;4.70;;;;;;;35.13;34.43;97055.41;5111749;28;20020;-78
2022/09/11 09:59:12;;;;;;;5.55;3.30;;;;;;;35.86;33.02;97063.91;5112036;28;20027;-77
2022/09/11 10:01:38;;;;;;;4.55;3.83;;;;;;;36.96;31.66;97067.59;5094641;28;20031;-78
2022/09/11 10:04:10;;;;;;;4.20;3.30;;;;;;;35.49;33.96;97053.81;5128480;27;20039;-78
2022/09/11 10:06:36;;;;;;;4.03;3.50;;;;;;;36.37;32.38;97056.72;5128508;27;20486;-78
2022/09/11 10:09:01;;;;;;;5.88;3.80;;;;;;;36.41;32.68;97048.66;5111284;28;20092;-77
2022/09/11 10:11:28;;;;;;;9.98;4.97;;;;;;;35.40;35.40;97045.09;5111506;28;20048;-78
2022/09/11 10:13:54;;;;;;;7.18;3.90;;;;;;;36.76;33.21;97059.97;5111578;28;20418;-78
2022/09/11 10:16:20;;;;;;;4.07;3.45;;;;;;;38.13;30.31;97049.03;5111303;28;20031;-78
2022/09/11 10:18:46;;;;;;;4.88;4.18;;;;;;;38.34;29.81;97034.72;5111420;28;20029;-78
2022/09/11 10:21:13;;;;;;;4.93;3.20;;;;;;;38.21;29.57;97015.75;5111177;28;20406;-78
2022/09/11 10:23:55;;;;;;;4.70;3.40;;;;;;;38.45;29.39;97028.03;5128174;27;20034;-78
2022/09/11 10:26:24;;;;;;;5.78;3.33;;;;;;;36.64;31.24;97011.97;5128110;27;20559;-77
2022/09/11 10:28:51;;;;;;;4.03;3.63;;;;;;;35.44;33.36;97012.03;5128167;27;20031;-78
2022/09/11 10:31:17;;;;;;;3.55;3.25;;;;;;;33.97;35.43;97004.69;5110905;28;20475;-78
2022/09/11 10:33:55;;;;;;;5.03;3.30;;;;;;;32.29;37.60;97003.88;5112296;28;20047;-77
2022/09/11 10:36:27;;;;;;;6.60;3.58;;;;;;;31.46;39.52;97004.16;5094005;28;20049;-77
2022/09/11 10:38:54;;;;;;;4.93;3.78;;;;;;;30.75;40.45;97007.84;5105759;28;20093;-76
2022/09/11 10:41:21;;;;;;;6.30;3.55;;;;;;;28.96;45.85;97017.38;5110655;28;20092;-76
2022/09/11 10:44:06;;;;;;;10.98;4.85;;;;;;;29.39;43.51;97034.03;5110865;28;20047;-76
2022/09/11 10:46:38;;;;;;;6.75;3.45;;;;;;;29.41;42.66;97029.16;5110154;28;20038;-78
2022/09/11 10:49:04;;;;;;;5.28;3.50;;;;;;;30.92;40.69;97044.75;5110936;28;20028;-78
2022/09/11 10:51:38;;;;;;;5.18;3.30;;;;;;;33.95;35.16;97040.22;5127693;27;20124;-78
2022/09/11 10:54:15;;;;;;;4.18;3.22;;;;;;;35.88;32.42;97042.19;5110771;28;20116;-79
2022/09/11 10:56:56;;;;;;;11.45;3.40;;;;;;;35.59;33.04;97032.50;5110810;28;20498;-79
2022/09/11 10:59:26;;;;;;;4.90;3.60;;;;;;;33.49;35.59;97005.34;5112211;28;20029;-78
2022/09/11 11:01:53;;;;;;;3.35;2.97;;;;;;;34.31;34.57;97019.38;5110690;28;20520;-78
2022/09/11 11:04:20;;;;;;;4.25;3.85;;;;;;;36.11;32.74;97023.41;5110587;28;20020;-78
2022/09/11 11:07:05;;;;;;;3.72;3.40;;;;;;;37.30;30.60;97023.31;5110730;28;20027;-79
2022/09/11 11:09:53;;;;;;;4.10;3.55;;;;;;;38.81;29.09;97027.88;5110398;28;20062;-78
2022/09/11 11:12:41;;;;;;;3.53;2.90;;;;;;;38.25;28.83;97014.06;5110324;28;20528;-78
2022/09/11 11:15:16;;;;;;;18.98;13.27;;;;;;;38.50;29.17;97014.00;5093491;28;20447;-78
2022/09/11 11:17:54;;;;;;;5.40;3.25;;;;;;;37.40;30.04;96990.69;5110128;28;20020;-78
2022/09/11 11:20:31;;;;;;;3.42;3.13;;;;;;;35.61;32.08;96971.84;5110160;28;20084;-78
2022/09/11 11:23:03;;;;;;;4.22;3.35;;;;;;;34.18;34.68;96978.06;5127507;27;20015;-77
2022/09/11 11:25:43;;;;;;;3.60;3.30;;;;;;;32.76;37.19;96976.88;5093278;28;20033;-78
2022/09/11 11:28:34;;;;;;;7.50;4.47;;;;;;;32.43;37.57;96978.41;5127028;27;20032;-78
2022/09/11 11:31:14;;;;;;;3.80;3.05;;;;;;;32.17;37.05;96973.47;5104692;28;20057;-77
2022/09/11 11:34:14;;;;;;;6.68;4.10;;;;;;;31.55;39.74;96981.47;5109921;28;20034;-77
2022/09/11 11:36:46;;;;;;;9.38;3.22;;;;;;;30.44;42.37;96984.06;5126686;27;20019;-77
2022/09/11 11:39:24;;;;;;;7.35;4.03;;;;;;;29.21;47.23;96998.97;5093163;28;20406;-77
2022/09/11 11:42:20;;;;;;;5.00;3.45;;;;;;;28.48;47.89;97009.66;5110274;28;20019;-79
2022/09/11 11:44:54;;;;;;;8.43;6.40;;;;;;;27.51;52.00;97028.13;5058418;28;20380;-79
2022/09/11 11:47:25;;;;;;;22.33;9.80;;;;;;;26.77;58.33;97049.41;5109971;28;20105;-78
2022/09/11 11:49:53;;;;;;;11.75;6.70;;;;;;;26.24;63.87;97073.13;5110086;28;20027;-78
2022/09/11 11:52:25;;;;;;;10.95;5.47;;;;;;;26.26;64.59;97071.00;5126991;28;20500;-78
2022/09/11 11:55:31;;;;;;;7.95;5.32;;;;;;;26.29;67.26;97074.19;5127036;28;20126;-78
2022/09/11 11:58:05;;;;;;;10.32;4.60;;;;;;;26.42;65.21;97060.50;5109725;28;20112;-79
2022/09/11 12:00:37;;;;;;;5.60;4.70;;;;;;;26.25;65.48;97070.16;5113297;28;20073;-78
2022/09/11 12:03:26;;;;;;;6.18;4.45;;;;;;;26.37;70.11;97082.22;5107927;28;20027;-78
2022/09/11 12:05:51;;;;;;;6.22;4.50;;;;;;;28.18;65.38;97088.28;5131277;27;20036;-77
2022/09/11 12:08:17;;;;;;;8.38;3.90;;;;;;;30.35;54.63;97082.06;5113679;28;20024;-78
2022/09/11 12:10:55;;;;;;;7.00;3.20;;;;;;;31.37;50.19;97055.38;5114469;28;20028;-79
2022/09/11 12:13:31;;;;;;;3.20;2.90;;;;;;;32.75;44.83;97036.97;5114327;28;20093;-79
2022/09/11 12:16:02;;;;;;;3.78;2.47;;;;;;;33.84;40.47;97034.78;5096942;28;20098;-79
2022/09/11 12:18:28;;;;;;;3.15;2.80;;;;;;;34.69;39.05;97024.03;5130864;27;20110;-78
2022/09/11 12:21:22;;;;;;;4.32;2.67;;;;;;;36.07;37.58;97017.53;5113721;27;20029;-77
2022/09/11 12:23:47;;;;;;;6.53;3.17;;;;;;;37.02;34.70;97009.88;5114440;28;20027;-77
2022/09/11 12:26:20;;;;;;;4.65;2.22;;;;;;;37.76;31.35;96997.09;5130539;27;20066;-77
2022/09/11 12:28:47;;;;;;;4.32;2.90;;;;;;;36.53;33.19;96976.81;5113341;27;20062;-78
2022/09/11 12:31:16;;;;;;;4.00;3.38;;;;;;;36.21;34.11;96984.47;5096555;28;20114;-77
2022/09/11 12:33:42;;;;;;;5.32;2.00;;;;;;;37.61;30.86;96976.72;5113138;27;20027;-78
2022/09/11 12:36:23;;;;;;;2.95;2.65;;;;;;;38.02;32.54;96988.72;5130430;27;20035;-79
2022/09/11 12:39:26;;;;;;;2.22;2.03;;;;;;;37.35;29.78;96953.53;5113063;28;20052;-78
2022/09/11 12:41:52;;;;;;;5.07;2.65;;;;;;;37.76;30.42;96963.59;5130015;27;20027;-78
2022/09/11 12:44:30;;;;;;;3.15;2.60;;;;;;;37.44;30.97;96954.63;5113184;28;20080;-78
2022/09/11 12:46:55;;;;;;;2.58;2.00;;;;;;;38.30;29.19;96952.53;5112794;28;20042;-77
2022/09/11 12:49:22;;;;;;;3.97;2.53;;;;;;;38.12;29.31;96950.38;5130068;27;20027;-78
2022/09/11 12:51:53;;;;;;;3.22;2.55;;;;;;;38.83;28.92;96945.31;5112690;28;20448;-79
2022/09/11 12:54:39;;;;;;;4.07;2.38;;;;;;;38.50;29.30;96940.47;5112989;28;20115;-79
2022/09/11 12:57:15;;;;;;;4.45;2.30;;;;;;;38.28;30.93;96934.38;5113079;28;20551;-78
2022/09/11 12:59:43;;;;;;;3.53;2.42;;;;;;;37.05;32.40;96925.63;5112717;28;20054;-78
2022/09/11 13:02:32;;;;;;;2.60;2.28;;;;;;;37.43;31.50;96927.88;5112561;28;20474;-78
2022/09/11 13:04:57;;;;;;;3.08;2.83;;;;;;;37.23;32.28;96925.06;5112678;28;20019;-78
2022/09/11 13:07:33;;;;;;;4.50;2.10;;;;;;;37.65;31.05;96919.22;5112888;28;20056;-78
2022/09/11 13:10:06;;;;;;;4.15;2.65;;;;;;;38.22;30.23;96932.72;5129468;27;20031;-79
2022/09/11 13:12:50;;;;;;;6.55;2.30;;;;;;;36.66;31.11;96898.25;5096069;28;20023;-79
2022/09/11 13:15:41;;;;;;;2.65;2.20;;;;;;;37.26;30.84;96924.50;5112678;28;20517;-79
2022/09/11 13:18:29;;;;;;;3.67;2.55;;;;;;;37.38;30.04;96900.78;5112408;28;20077;-78
2022/09/11 13:21:11;;;;;;;2.47;2.10;;;;;;;37.90;29.57;96908.81;5129355;27;20027;-77
2022/09/11 13:23:37;;;;;;;2.60;2.30;;;;;;;36.65;30.84;96888.19;5112704;28;20037;-78
2022/09/11 13:26:05;;;;;;;3.25;2.20;;;;;;;36.33;30.52;96877.22;5112490;28;20031;-79
2022/09/11 13:28:36;;;;;;;2.45;2.22;;;;;;;36.01;31.03;96872.91;5095439;28;20027;-79
2022/09/11 13:31:03;;;;;;;2.85;2.42;;;;;;;35.82;32.07;96881.75;5112057;28;20448;-79
2022/09/11 13:33:30;;;;;;;3.65;2.45;;;;;;;35.33;32.33;96872.81;5112346;28;20084;-77
2022/09/11 13:36:01;;;;;;;4.95;2.30;;;;;;;35.55;31.55;96872.66;5112207;28;20494;-78
2022/09/11 13:38:33;;;;;;;;;;;;;;;34.94;32.81;96862.19;5112673;28;20044;-79
2022/09/11 13:41:02;;;;;;;8.15;5.18;;;;;;;35.28;32.17;96874.72;5095320;28;19916;-80
2022/09/11 13:43:39;;;;;;;2.97;2.63;;;;;;;34.09;33.53;96861.03;5112192;28;20027;-78
2022/09/11 13:46:14;;;;;;;2.60;2.40;;;;;;;34.60;33.79;96872.75;5112211;28;20106;-79
2022/09/11 13:48:42;;;;;;;3.15;2.30;;;;;;;34.62;32.95;96868.59;5113354;28;20049;-79
2022/09/11 13:51:12;;;;;;;2.45;2.25;;;;;;;35.03;32.54;96874.50;5112008;28;20041;-79
2022/09/11 13:53:38;;;;;;;3.38;2.78;;;;;;;35.42;32.37;96873.13;5111887;28;20030;-79
2022/09/11 13:56:04;;;;;;;4.10;2.08;;;;;;;35.41;32.45;96870.63;5113211;28;20036;-79
2022/09/11 13:58:36;;;;;;;3.60;2.70;;;;;;;33.71;35.54;96852.81;5113170;28;20084;-79
2022/09/11 14:01:10;;;;;;;2.67;2.47;;;;;;;33.69;35.27;96863.31;5112026;28;20023;-79
2022/09/11 14:03:36;;;;;;;2.40;2.20;;;;;;;34.88;33.15;96871.59;5111755;28;20023;-79
2022/09/11 14:06:22;;;;;;;2.88;2.53;;;;;;;35.38;32.40;96873.97;5111413;28;20065;-79
2022/09/11 14:08:50;;;;;;;2.85;2.40;;;;;;;35.02;33.00;96859.75;5093951;28;20040;-79
2022/09/11 14:11:28;;;;;;;3.97;2.65;;;;;;;33.21;35.52;96842.66;5111638;28;20456;-79
2022/09/11 14:13:58;;;;;;;3.20;2.83;;;;;;;32.33;37.03;96837.00;5094273;28;20031;-79
2022/09/11 14:16:32;;;;;;;3.95;2.55;;;;;;;31.50;38.29;96831.19;5111596;28;20077;-79
2022/09/11 14:19:17;;;;;;;4.18;2.72;;;;;;;30.53;39.35;96821.66;5111047;28;20024;-78
2022/09/11 14:21:45;;;;;;;5.25;2.65;;;;;;;29.62;41.82;96818.31;5110665;28;20490;-78
2022/09/11 14:24:32;;;;;;;3.30;2.83;;;;;;;28.76;42.90;96843.22;5111565;28;20100;-78
2022/09/11 14:27:00;;;;;;;3.63;2.88;;;;;;;28.26;43.98;96828.59;5111212;28;20508;-78
2022/09/11 14:29:31;;;;;;;3.50;2.70;;;;;;;27.76;44.37;96833.97;5111354;28;20042;-78
2022/09/11 14:32:30;;;;;;;3.67;2.80;;;;;;;27.42;45.81;96846.19;5111172;28;20020;-79
2022/09/11 14:34:56;;;;;;;3.72;3.25;;;;;;;27.24;46.93;96845.16;5139013;27;20114;-78
2022/09/11 14:37:22;;;;;;;6.03;3.10;;;;;;;27.18;47.53;96851.50;5110348;27;20657;-85
2022/09/11 14:39:57;;;;;;;4.43;3.08;;;;;;;27.13;47.57;96856.81;5108102;28;20458;-87
2022/09/11 14:42:26;;;;;;;12.32;9.15;;;;;;;27.23;48.47;96865.44;5110906;28;20023;-86
2022/09/11 14:44:52;;;;;;;4.72;2.70;;;;;;;27.21;45.95;96859.31;5109987;28;20040;-85
2022/09/11 14:47:23;;;;;;;4.40;2.38;;;;;;;27.00;46.30;96856.84;5109932;28;20050;-87
2022/09/11 14:49:53;;;;;;;6.00;2.20;;;;;;;26.88;46.59;96863.00;5092841;28;20589;-87
2022/09/11 14:52:21;;;;;;;3.92;2.08;;;;;;;26.77;47.86;96870.97;5110854;28;20543;-90
2022/09/11 14:54:48;;;;;;;3.90;2.03;;;;;;;26.46;47.63;96868.03;5110106;28;20124;-86
2022/09/11 14:57:15;;;;;;;3.53;1.70;;;;;;;26.17;48.15;96861.94;5110341;28;20019;-87
2022/09/11 14:59:41;;;;;;;4.20;1.60;;;;;;;25.93;48.16;96846.03;5110185;28;20494;-88
2022/09/11 15:02:24;;;;;;;3.38;2.10;;;;;;;25.93;49.86;96861.63;5110569;28;20096;-87
2022/09/11 15:04:52;;;;;;;2.65;1.90;;;;;;;25.90;47.79;96864.78;5092726;28;20038;-79
2022/09/11 15:07:18;;;;;;;3.45;1.60;;;;;;;25.77;48.64;96862.88;5091452;28;20578;-81
2022/09/11 15:09:45;;;;;;;6.78;1.70;;;;;;;25.72;48.97;96860.72;5110007;28;20498;-81
2022/09/11 15:12:12;;;;;;;5.35;2.30;;;;;;;25.49;50.25;96865.72;5113868;27;20031;-88
2022/09/11 15:14:38;;;;;;;5.32;2.40;;;;;;;25.33;49.94;96866.03;5113157;28;20025;-89
2022/09/11 15:17:06;;;;;;;6.00;2.03;;;;;;;25.14;49.63;96877.72;5113160;28;20023;-80
2022/09/11 15:19:34;;;;;;;3.00;1.85;;;;;;;24.96;50.15;96875.53;5106604;28;20597;-77
2022/09/11 15:21:59;;;;;;;3.17;2.00;;;;;;;24.84;50.47;96888.06;5107728;28;20062;-78
2022/09/11 15:24:25;;;;;;;5.80;2.22;;;;;;;24.73;51.02;96894.06;5108682;28;20055;-78
2022/09/11 15:26:52;;;;;;;5.80;2.97;;;;;;;24.57;51.77;96902.56;5108224;28;20020;-79